Time;durP1;ratioP1;P1;durP2;ratioP2;P2;SDS_P1;SDS_P2;PMS_P1;PMS_P2;Temp;Humidity;BMP_temperature;BMP_pressure;BME280_temperature;BME280_humidity;BME280_pressure;Samples;Min_cycle;Max_cycle;Signal;HPM_P1;HPM_P2
2024/01/11 00:00:13;;;;;;;43.13;16.20;;;-4.30;98.80;;;;;;4987299;28;20755;-66
2024/01/11 00:02:39;;;;;;;35.85;13.48;;;-4.30;98.80;;;;;;4990437;28;20034;-66
2024/01/11 00:05:06;;;;;;;36.15;13.90;;;-4.40;98.60;;;;;;4986874;28;20026;-66
2024/01/11 00:07:32;;;;;;;40.08;16.05;;;-4.40;98.80;;;;;;4986679;28;20053;-66
2024/01/11 00:09:58;;;;;;;44.28;15.65;;;-4.40;98.70;;;;;;4986666;28;20053;-66
2024/01/11 00:12:24;;;;;;;39.17;16.02;;;-4.40;97.70;;;;;;4986846;28;20741;-66
2024/01/11 00:14:49;;;;;;;50.47;17.45;;;-4.40;97.40;;;;;;4986803;28;20051;-66
2024/01/11 00:17:15;;;;;;;43.80;15.93;;;-4.50;97.60;;;;;;4986870;28;20053;-66
2024/01/11 00:19:41;;;;;;;39.05;15.32;;;-4.50;98.00;;;;;;4986563;28;20077;-66
2024/01/11 00:22:07;;;;;;;40.08;15.63;;;-4.50;98.10;;;;;;4993580;28;20087;-66
2024/01/11 00:24:33;;;;;;;35.75;13.90;;;-4.50;98.20;;;;;;4987781;28;20030;-66
2024/01/11 00:26:58;;;;;;;40.53;14.02;;;-4.50;98.40;;;;;;4986730;28;20447;-67
2024/01/11 00:29:24;;;;;;;35.20;12.93;;;-4.50;98.60;;;;;;4986700;28;20398;-66
2024/01/11 00:31:50;;;;;;;36.28;13.45;;;-4.60;98.80;;;;;;4986934;28;20077;-66
2024/01/11 00:34:16;;;;;;;36.75;13.60;;;-4.50;99.20;;;;;;4989160;28;20030;-66
2024/01/11 00:36:41;;;;;;;33.72;12.52;;;-4.60;99.20;;;;;;4992385;28;20077;-66
2024/01/11 00:39:07;;;;;;;36.53;12.60;;;-4.50;99.30;;;;;;4986171;28;20033;-66
2024/01/11 00:41:33;;;;;;;31.25;12.73;;;-4.50;99.30;;;;;;4985881;28;20061;-66
2024/01/11 00:43:59;;;;;;;38.83;12.98;;;-4.50;99.30;;;;;;4989661;28;20129;-67
2024/01/11 00:46:24;;;;;;;34.35;13.05;;;-4.50;99.20;;;;;;4986086;28;20092;-66
2024/01/11 00:48:50;;;;;;;34.13;14.40;;;-4.60;99.10;;;;;;4989967;28;20037;-66
2024/01/11 00:51:16;;;;;;;35.55;12.60;;;-4.60;99.00;;;;;;4987010;28;20041;-67
2024/01/11 00:53:42;;;;;;;32.65;12.38;;;-4.50;99.00;;;;;;4989909;28;20038;-66
2024/01/11 00:56:18;;;;;;;34.97;13.85;;;-4.60;99.10;;;;;;4989480;28;20038;-67
2024/01/11 00:58:43;;;;;;;32.85;13.15;;;-4.60;98.80;;;;;;4983744;28;20034;-66
2024/01/11 01:01:10;;;;;;;39.28;13.13;;;-4.70;98.80;;;;;;4981798;28;20085;-66
2024/01/11 01:03:35;;;;;;;33.47;13.73;;;-4.70;98.80;;;;;;4985450;28;20122;-66
2024/01/11 01:06:02;;;;;;;26.25;12.38;;;-4.80;98.40;;;;;;4985750;28;20189;-66
2024/01/11 01:08:28;;;;;;;33.63;11.55;;;-4.80;98.30;;;;;;4990014;28;20018;-66
2024/01/11 01:10:54;;;;;;;38.58;13.75;;;-4.80;98.40;;;;;;4986018;28;20049;-66
2024/01/11 01:13:20;;;;;;;33.80;12.57;;;-4.80;98.50;;;;;;4986095;28;20525;-66
2024/01/11 01:15:46;;;;;;;39.10;14.38;;;-4.90;98.40;;;;;;4988901;28;20033;-66
2024/01/11 01:18:11;;;;;;;39.33;14.43;;;-4.90;98.50;;;;;;5004617;28;20034;-66
2024/01/11 01:20:37;;;;;;;34.92;12.38;;;-4.90;98.50;;;;;;4982011;28;20540;-66
2024/01/11 01:23:03;;;;;;;40.33;13.85;;;-4.90;98.80;;;;;;4986566;28;20030;-66
2024/01/11 01:25:29;;;;;;;36.45;12.55;;;-4.90;99.10;;;;;;4982617;28;20105;-66
2024/01/11 01:27:56;;;;;;;28.08;11.80;;;-4.90;99.30;;;;;;4985498;28;20116;-65
2024/01/11 01:30:23;;;;;;;40.33;12.82;;;-4.90;99.50;;;;;;4982123;28;20041;-66
2024/01/11 01:32:49;;;;;;;33.47;11.13;;;-4.90;99.90;;;;;;4985477;28;20409;-66
2024/01/11 01:35:15;;;;;;;30.83;12.05;;;-4.90;99.90;;;;;;4985733;28;20022;-66
2024/01/11 01:37:41;;;;;;;34.55;12.85;;;-4.90;99.90;;;;;;4989230;28;20438;-67
2024/01/11 01:40:07;;;;;;;32.28;11.73;;;-4.90;99.90;;;;;;4986245;28;20120;-66
2024/01/11 01:42:33;;;;;;;36.80;12.10;;;-4.90;99.90;;;;;;4988184;28;20038;-66
2024/01/11 01:44:59;;;;;;;26.52;11.25;;;-4.90;99.90;;;;;;4985448;28;20042;-65
2024/01/11 01:47:29;;;;;;;31.55;11.88;;;-4.90;99.90;;;;;;4985492;28;20041;-66
2024/01/11 01:49:55;;;;;;;27.65;11.02;;;-4.90;99.90;;;;;;4988338;28;20025;-66
2024/01/11 01:52:22;;;;;;;26.42;10.45;;;-4.80;99.90;;;;;;4985403;28;20042;-65
2024/01/11 01:54:50;;;;;;;27.05;11.05;;;-4.80;99.90;;;;;;4987612;28;20057;-66
2024/01/11 01:57:18;;;;;;;25.02;9.93;;;-4.80;99.90;;;;;;4989720;28;20129;-66
2024/01/11 01:59:45;;;;;;;25.02;9.93;;;-4.80;99.90;;;;;;4989876;28;20147;-66
2024/01/11 02:02:12;;;;;;;24.30;9.68;;;-4.80;99.90;;;;;;4996994;28;20495;-66
2024/01/11 02:04:38;;;;;;;28.52;8.85;;;-4.70;99.90;;;;;;4990886;28;20031;-66
2024/01/11 02:07:06;;;;;;;23.45;9.25;;;-4.70;99.90;;;;;;4991452;28;20030;-66
2024/01/11 02:09:33;;;;;;;21.75;9.85;;;-4.70;99.90;;;;;;4990334;28;20249;-66
2024/01/11 02:12:00;;;;;;;17.63;8.98;;;-4.60;99.90;;;;;;4988748;28;20053;-66
2024/01/11 02:14:26;;;;;;;24.50;9.40;;;-4.70;99.90;;;;;;4988843;28;20052;-65
2024/01/11 02:16:52;;;;;;;24.67;9.25;;;-4.60;99.90;;;;;;4986904;28;20128;-66
2024/01/11 02:19:19;;;;;;;25.20;10.70;;;-4.70;99.90;;;;;;4992658;28;20424;-66
2024/01/11 02:21:48;;;;;;;26.98;9.95;;;-4.70;99.90;;;;;;4988373;28;20034;-67
2024/01/11 02:24:14;;;;;;;26.08;8.43;;;-4.70;99.90;;;;;;4991200;28;20029;-66
2024/01/11 02:27:02;;;;;;;21.70;8.13;;;-4.70;99.90;;;;;;4988808;28;20022;-66
2024/01/11 02:29:29;;;;;;;21.73;9.50;;;-4.70;99.90;;;;;;5006021;28;20034;-66
2024/01/11 02:32:01;;;;;;;20.80;9.07;;;-4.70;99.90;;;;;;4992199;28;20490;-66
2024/01/11 02:34:27;;;;;;;20.92;9.60;;;-4.70;99.90;;;;;;4988649;28;20129;-66
2024/01/11 02:36:56;;;;;;;23.25;9.35;;;-4.60;99.90;;;;;;4988422;28;20557;-66
2024/01/11 02:39:23;;;;;;;20.27;7.78;;;-4.60;99.90;;;;;;4988291;28;20089;-66
2024/01/11 02:41:55;;;;;;;24.30;8.48;;;-4.60;99.90;;;;;;4988150;28;20045;-66
2024/01/11 02:44:21;;;;;;;22.80;8.82;;;-4.70;99.90;;;;;;4987693;28;20034;-66
2024/01/11 02:46:46;;;;;;;22.63;7.82;;;-4.60;99.90;;;;;;5003967;28;20029;-66
2024/01/11 02:49:12;;;;;;;21.50;9.13;;;-4.70;99.90;;;;;;4991633;28;20031;-66
2024/01/11 02:51:38;;;;;;;28.58;9.68;;;-4.70;99.90;;;;;;4988099;28;20026;-66
2024/01/11 02:54:04;;;;;;;22.75;8.98;;;-4.70;99.90;;;;;;4980387;28;20579;-66
2024/01/11 02:56:30;;;;;;;22.67;8.50;;;-4.60;99.90;;;;;;4989404;28;20129;-66
2024/01/11 02:58:55;;;;;;;30.70;10.63;;;-4.60;99.90;;;;;;4990000;28;20127;-66
2024/01/11 03:01:21;;;;;;;23.55;9.10;;;-4.60;99.90;;;;;;4987997;28;20533;-66
2024/01/11 03:03:47;;;;;;;20.85;7.93;;;-4.50;99.90;;;;;;4987980;28;20053;-66
2024/01/11 03:06:13;;;;;;;18.30;7.60;;;-4.50;99.90;;;;;;4987900;28;20030;-66
2024/01/11 03:08:39;;;;;;;16.48;7.15;;;-4.40;99.90;;;;;;4988073;28;20034;-66
2024/01/11 03:11:05;;;;;;;11.88;5.90;;;-4.30;99.90;;;;;;4988611;28;20033;-66
2024/01/11 03:13:31;;;;;;;12.98;6.47;;;-4.30;99.90;;;;;;4987881;28;20079;-66
2024/01/11 03:15:57;;;;;;;11.90;5.25;;;-4.20;99.90;;;;;;4987822;28;20030;-66
2024/01/11 03:18:23;;;;;;;15.93;5.28;;;-4.10;99.90;;;;;;4991390;28;20038;-66
2024/01/11 03:20:49;;;;;;;10.07;4.53;;;-4.00;99.90;;;;;;4991770;28;20146;-66
2024/01/11 03:23:14;;;;;;;8.45;4.13;;;-4.00;99.90;;;;;;4990629;28;20117;-66
2024/01/11 03:25:40;;;;;;;6.72;3.63;;;-3.90;99.90;;;;;;4986705;28;20066;-66
2024/01/11 03:28:06;;;;;;;7.70;3.78;;;-3.90;99.90;;;;;;4988267;28;20069;-66
2024/01/11 03:30:31;;;;;;;11.15;3.90;;;-3.90;99.90;;;;;;4989101;28;20070;-66
2024/01/11 03:32:57;;;;;;;9.27;4.68;;;-3.90;99.90;;;;;;4987759;28;20049;-66
2024/01/11 03:35:23;;;;;;;9.63;4.30;;;-3.90;99.90;;;;;;4987490;28;20116;-66
2024/01/11 03:37:49;;;;;;;8.82;3.78;;;-3.80;99.90;;;;;;4987293;28;20141;-66
2024/01/11 03:40:15;;;;;;;7.47;3.83;;;-3.90;99.90;;;;;;4986984;28;20034;-66
2024/01/11 03:42:43;;;;;;;9.63;3.45;;;-3.90;99.90;;;;;;4987356;28;20061;-66
2024/01/11 03:45:09;;;;;;;9.43;3.72;;;-3.80;99.90;;;;;;4991483;28;20035;-66
2024/01/11 03:47:34;;;;;;;10.07;4.05;;;-3.80;99.90;;;;;;4991324;28;20030;-66
2024/01/11 03:50:00;;;;;;;7.68;3.88;;;-3.70;99.90;;;;;;4987266;28;20034;-66
2024/01/11 03:52:26;;;;;;;10.45;4.07;;;-3.70;99.90;;;;;;4991165;28;20129;-66
2024/01/11 03:54:51;;;;;;;10.07;3.83;;;-3.80;99.90;;;;;;4987582;28;20049;-66
2024/01/11 03:57:17;;;;;;;6.88;3.10;;;-3.80;99.90;;;;;;4990864;28;20062;-68
2024/01/11 03:59:43;;;;;;;8.43;3.70;;;-3.70;99.90;;;;;;4989724;28;20045;-65
2024/01/11 04:02:09;;;;;;;6.65;3.45;;;-3.70;99.90;;;;;;4986640;28;20034;-66
2024/01/11 04:04:35;;;;;;;7.00;3.72;;;-3.70;99.90;;;;;;5001676;28;20037;-66
2024/01/11 04:07:01;;;;;;;8.82;3.97;;;-3.60;99.90;;;;;;4986961;28;20030;-66
2024/01/11 04:09:26;;;;;;;7.20;3.58;;;-3.70;99.90;;;;;;4986411;28;20031;-66
2024/01/11 04:11:52;;;;;;;8.80;3.80;;;-3.70;99.90;;;;;;4986563;28;20038;-66
2024/01/11 04:14:18;;;;;;;10.88;3.72;;;-3.70;99.90;;;;;;4994648;28;20508;-66
2024/01/11 04:16:44;;;;;;;8.88;4.10;;;-3.70;99.90;;;;;;4986092;28;20030;-66
2024/01/11 04:19:10;;;;;;;7.95;3.03;;;-3.60;99.90;;;;;;4985180;28;20040;-66
2024/01/11 04:21:38;;;;;;;10.13;3.60;;;-3.60;99.90;;;;;;4986377;28;20129;-66
2024/01/11 04:24:05;;;;;;;11.63;4.10;;;-3.60;99.90;;;;;;4986474;28;20034;-66
2024/01/11 04:26:31;;;;;;;6.10;3.70;;;-3.50;99.90;;;;;;4986591;28;20038;-66
2024/01/11 04:28:59;;;;;;;9.50;3.10;;;-3.40;99.90;;;;;;4987032;28;20034;-66
2024/01/11 04:31:26;;;;;;;7.28;3.35;;;-3.30;99.90;;;;;;4990180;28;20755;-66
2024/01/11 04:33:51;;;;;;;11.45;3.10;;;-3.20;99.90;;;;;;4988219;28;20038;-66
2024/01/11 04:36:17;;;;;;;13.13;4.78;;;-3.20;99.90;;;;;;4986446;28;20495;-66
2024/01/11 04:38:44;;;;;;;11.13;5.22;;;-3.20;99.90;;;;;;4989996;28;20026;-66
2024/01/11 04:41:10;;;;;;;9.05;3.50;;;-3.20;99.90;;;;;;4986196;28;20135;-66
2024/01/11 04:43:41;;;;;;;12.48;4.25;;;-3.10;99.90;;;;;;4986160;28;20088;-66
2024/01/11 04:46:20;;;;;;;13.20;4.10;;;-3.10;99.90;;;;;;4987987;28;20041;-66
2024/01/11 04:48:46;;;;;;;7.63;3.15;;;-3.10;99.90;;;;;;4990111;28;20056;-66
2024/01/11 04:51:13;;;;;;;7.25;3.05;;;-3.00;99.90;;;;;;4988624;28;20034;-66
2024/01/11 04:53:40;;;;;;;10.85;4.43;;;-3.00;99.90;;;;;;4983055;28;20022;-65
2024/01/11 04:56:19;;;;;;;8.07;4.00;;;-3.00;99.90;;;;;;4985685;28;20478;-66
2024/01/11 04:58:45;;;;;;;12.98;4.18;;;-2.90;99.90;;;;;;4985905;28;20041;-66
2024/01/11 05:01:18;;;;;;;8.15;3.90;;;-2.90;99.90;;;;;;4981543;28;20045;-66
2024/01/11 05:03:45;;;;;;;10.73;4.32;;;-2.90;99.90;;;;;;4989980;28;20080;-66
2024/01/11 05:06:18;;;;;;;11.40;4.40;;;-2.80;99.90;;;;;;4996081;28;20054;-66
2024/01/11 05:08:45;;;;;;;11.52;4.10;;;-2.70;99.90;;;;;;4986886;28;20030;-66
2024/01/11 05:11:18;;;;;;;10.93;3.25;;;-2.70;99.90;;;;;;4985454;28;20026;-66
2024/01/11 05:13:47;;;;;;;11.05;4.25;;;-2.60;99.90;;;;;;4985858;28;20033;-66
2024/01/11 05:16:27;;;;;;;9.65;4.80;;;-2.60;99.90;;;;;;4985837;28;20046;-66
2024/01/11 05:18:56;;;;;;;12.07;4.00;;;-2.50;99.90;;;;;;4985596;28;20577;-66
2024/01/11 05:21:23;;;;;;;13.63;3.47;;;-2.50;99.90;;;;;;4982396;28;20449;-66
2024/01/11 05:23:49;;;;;;;11.43;3.85;;;-2.60;99.90;;;;;;4986211;28;20759;-66
2024/01/11 05:26:16;;;;;;;11.27;3.95;;;-2.60;99.90;;;;;;4985852;28;20037;-66
2024/01/11 05:28:42;;;;;;;10.07;4.00;;;-2.60;99.90;;;;;;4984544;28;20030;-66
2024/01/11 05:31:14;;;;;;;13.00;4.07;;;-2.70;99.90;;;;;;4989888;28;20027;-66
2024/01/11 05:33:40;;;;;;;11.45;4.55;;;-2.70;99.90;;;;;;4989756;28;20073;-66
2024/01/11 05:36:07;;;;;;;12.65;4.82;;;-2.60;99.90;;;;;;4989688;28;20088;-66
2024/01/11 05:38:32;;;;;;;14.30;4.82;;;-2.50;99.90;;;;;;4991213;28;20046;-67
2024/01/11 05:40:58;;;;;;;15.77;4.68;;;-2.50;99.90;;;;;;4989333;28;20048;-66
2024/01/11 05:43:24;;;;;;;11.35;4.63;;;-2.50;99.90;;;;;;4989495;28;20030;-66
2024/01/11 05:45:51;;;;;;;12.43;4.05;;;-2.50;99.90;;;;;;4993451;28;20030;-66
2024/01/11 05:48:17;;;;;;;12.60;4.82;;;-2.50;99.90;;;;;;4989565;28;20073;-66
2024/01/11 05:50:44;;;;;;;11.77;4.82;;;-2.50;99.90;;;;;;4989739;28;20035;-64
2024/01/11 05:53:10;;;;;;;13.00;4.43;;;-2.40;99.90;;;;;;4989465;28;20023;-65
2024/01/11 05:55:36;;;;;;;12.68;4.90;;;-2.40;99.90;;;;;;4989022;28;20561;-65
2024/01/11 05:58:02;;;;;;;11.48;4.60;;;-2.30;99.90;;;;;;4988828;28;20109;-66
2024/01/11 06:00:27;;;;;;;11.82;4.57;;;-2.30;99.90;;;;;;4989225;28;20041;-65
2024/01/11 06:02:53;;;;;;;18.75;7.32;;;-2.30;99.90;;;;;;4989225;28;20054;-65
2024/01/11 06:05:19;;;;;;;16.17;6.63;;;-2.20;99.90;;;;;;4993050;28;20034;-65
2024/01/11 06:07:45;;;;;;;22.17;6.10;;;-2.20;99.90;;;;;;4988584;28;20554;-66
2024/01/11 06:10:10;;;;;;;13.32;4.40;;;-2.20;99.90;;;;;;4994092;28;20379;-66
2024/01/11 06:12:36;;;;;;;15.85;5.00;;;-2.10;99.90;;;;;;4992921;28;20186;-65
2024/01/11 06:15:02;;;;;;;9.90;4.22;;;-2.10;99.90;;;;;;4992971;28;20026;-65
2024/01/11 06:17:28;;;;;;;10.82;4.13;;;-2.20;99.90;;;;;;4991598;28;20161;-65
2024/01/11 06:19:55;;;;;;;9.52;3.95;;;-2.20;99.90;;;;;;4992215;28;20854;-65
2024/01/11 06:22:21;;;;;;;9.57;3.88;;;-2.10;99.90;;;;;;4992954;28;20025;-65
2024/01/11 06:24:47;;;;;;;10.27;4.35;;;-2.10;99.90;;;;;;4988882;28;20505;-66
2024/01/11 06:27:13;;;;;;;12.27;4.53;;;-2.10;99.90;;;;;;4992706;28;20026;-65
2024/01/11 06:29:39;;;;;;;12.20;4.78;;;-2.20;99.90;;;;;;4988746;28;20033;-65
2024/01/11 06:32:05;;;;;;;17.20;5.40;;;-2.20;99.90;;;;;;4988607;28;20037;-65
2024/01/11 06:34:31;;;;;;;13.68;4.90;;;-2.20;99.90;;;;;;4995247;28;20109;-65
2024/01/11 06:36:57;;;;;;;15.93;5.38;;;-2.20;99.90;;;;;;4992317;28;20502;-65
2024/01/11 06:39:22;;;;;;;10.15;4.03;;;-2.20;99.90;;;;;;4987707;28;20125;-66
2024/01/11 06:41:48;;;;;;;14.25;5.32;;;-2.10;99.90;;;;;;4991938;28;20125;-65
2024/01/11 06:44:14;;;;;;;11.75;3.55;;;-2.10;99.90;;;;;;4988615;28;20431;-65
2024/01/11 06:46:41;;;;;;;12.02;4.25;;;-2.10;99.90;;;;;;4992342;28;20038;-65
2024/01/11 06:49:08;;;;;;;15.07;4.97;;;-2.10;99.90;;;;;;4991855;28;20443;-67
2024/01/11 06:51:33;;;;;;;11.60;4.30;;;-2.10;99.90;;;;;;4988343;28;20778;-65
2024/01/11 06:54:01;;;;;;;13.35;5.20;;;-2.00;99.90;;;;;;4992092;28;20034;-65
2024/01/11 06:56:27;;;;;;;17.58;6.03;;;-2.00;99.90;;;;;;4995322;28;20092;-65
2024/01/11 06:58:53;;;;;;;13.38;5.22;;;-2.10;99.90;;;;;;4988259;28;20100;-65
2024/01/11 07:01:18;;;;;;;14.63;5.32;;;-2.00;99.90;;;;;;4988254;28;20042;-65
2024/01/11 07:03:44;;;;;;;17.77;5.72;;;-2.00;99.90;;;;;;4988088;28;20034;-65
2024/01/11 07:06:10;;;;;;;17.67;6.10;;;-2.00;99.90;;;;;;4990353;28;20537;-65
2024/01/11 07:08:36;;;;;;;20.48;6.28;;;-2.10;99.90;;;;;;4997839;28;20501;-65
2024/01/11 07:11:02;;;;;;;19.27;6.65;;;-2.10;99.90;;;;;;5005561;28;20121;-65
2024/01/11 07:13:29;;;;;;;17.30;5.55;;;-2.10;99.90;;;;;;4987634;28;20045;-65
2024/01/11 07:15:57;;;;;;;17.98;6.72;;;-2.10;99.90;;;;;;4992055;28;20034;-65
2024/01/11 07:18:23;;;;;;;19.20;6.20;;;-2.00;99.90;;;;;;4987310;28;20458;-65
2024/01/11 07:20:48;;;;;;;17.80;6.28;;;-2.10;99.90;;;;;;4986462;28;20040;-65
2024/01/11 07:23:15;;;;;;;31.40;13.80;;;-2.10;99.90;;;;;;4991529;28;20561;-65
2024/01/11 07:25:41;;;;;;;19.52;6.65;;;-2.30;99.90;;;;;;4989642;28;20395;-65
2024/01/11 07:28:07;;;;;;;24.85;11.95;;;-2.40;99.90;;;;;;4987356;28;20084;-65
2024/01/11 07:30:33;;;;;;;18.52;7.68;;;-2.50;99.90;;;;;;4987048;28;20076;-65
2024/01/11 07:32:59;;;;;;;26.90;8.20;;;-2.50;99.90;;;;;;4991446;28;20037;-65
2024/01/11 07:35:24;;;;;;;20.20;6.47;;;-2.50;99.90;;;;;;4987410;28;20041;-65
2024/01/11 07:37:50;;;;;;;17.25;6.55;;;-2.50;99.90;;;;;;4988327;28;20045;-66
2024/01/11 07:40:16;;;;;;;21.58;7.43;;;-2.50;99.90;;;;;;4987218;28;20045;-67
2024/01/11 07:42:43;;;;;;;19.50;6.80;;;-2.40;99.90;;;;;;4993240;28;20033;-66
2024/01/11 07:45:10;;;;;;;21.92;8.00;;;-2.40;99.90;;;;;;4987387;28;20034;-67
2024/01/11 07:47:39;;;;;;;23.63;10.40;;;-2.60;99.90;;;;;;4987115;28;20030;-66
2024/01/11 07:50:15;;;;;;;27.85;9.60;;;-2.60;99.90;;;;;;4987284;28;20026;-67
2024/01/11 07:52:41;;;;;;;22.00;7.20;;;-2.60;99.90;;;;;;4982921;28;20034;-67
2024/01/11 07:55:08;;;;;;;29.88;9.45;;;-2.50;99.90;;;;;;4983679;28;20113;-65
2024/01/11 07:57:37;;;;;;;23.13;7.25;;;-2.40;99.90;;;;;;4990904;28;20030;-67
2024/01/11 08:00:06;;;;;;;22.23;7.72;;;-2.40;99.90;;;;;;4989710;28;20034;-67
2024/01/11 08:02:38;;;;;;;24.15;6.63;;;-2.30;99.90;;;;;;4988077;28;20040;-66
2024/01/11 08:05:04;;;;;;;30.23;9.18;;;-2.30;99.90;;;;;;4986517;28;20034;-65
2024/01/11 08:07:30;;;;;;;27.63;10.07;;;-2.20;99.90;;;;;;4986756;28;20019;-66
2024/01/11 08:09:56;;;;;;;25.60;9.10;;;-2.30;99.90;;;;;;4986440;28;20045;-67
2024/01/11 08:12:22;;;;;;;25.20;8.38;;;-2.20;99.90;;;;;;4986639;28;20109;-66
2024/01/11 08:14:48;;;;;;;21.77;7.43;;;-2.30;99.90;;;;;;4986515;28;20034;-67
2024/01/11 08:17:14;;;;;;;34.47;11.57;;;-2.30;99.90;;;;;;4990444;28;20109;-67
2024/01/11 08:19:42;;;;;;;27.83;9.15;;;-2.30;99.90;;;;;;4985862;28;20048;-67
2024/01/11 08:22:08;;;;;;;26.98;9.05;;;-2.40;99.90;;;;;;4988727;28;20041;-66
2024/01/11 08:24:35;;;;;;;26.95;9.32;;;-2.40;99.90;;;;;;4986412;28;20508;-68
2024/01/11 08:27:01;;;;;;;25.65;8.35;;;-2.40;99.90;;;;;;4986657;28;20030;-67
2024/01/11 08:29:27;;;;;;;25.33;9.10;;;-2.50;99.90;;;;;;4986438;28;20509;-67
2024/01/11 08:31:56;;;;;;;34.22;12.07;;;-2.50;99.90;;;;;;4986108;28;20034;-65
2024/01/11 08:34:23;;;;;;;32.45;10.95;;;-2.40;99.90;;;;;;4986114;28;20654;-67
2024/01/11 08:36:49;;;;;;;31.02;10.52;;;-2.30;99.90;;;;;;4986204;28;20688;-66
2024/01/11 08:39:14;;;;;;;29.10;10.27;;;-2.20;99.90;;;;;;4988814;28;20034;-66
2024/01/11 08:41:40;;;;;;;32.67;10.10;;;-2.10;99.90;;;;;;4985689;28;20121;-67
2024/01/11 08:44:06;;;;;;;36.38;11.10;;;-2.10;99.90;;;;;;4986082;28;20108;-67
2024/01/11 08:46:35;;;;;;;35.15;13.43;;;-2.10;99.90;;;;;;4989197;28;20469;-65
2024/01/11 08:49:03;;;;;;;29.45;11.02;;;-2.10;99.90;;;;;;4985660;28;20034;-66
2024/01/11 08:51:29;;;;;;;30.30;10.10;;;-2.20;99.90;;;;;;4986345;28;20045;-67
2024/01/11 08:53:55;;;;;;;28.98;11.57;;;-2.40;99.90;;;;;;4984674;28;20038;-65
2024/01/11 08:56:22;;;;;;;29.35;9.70;;;-2.40;99.90;;;;;;4986019;28;20065;-68
2024/01/11 08:58:48;;;;;;;36.33;12.02;;;-2.50;99.90;;;;;;4984836;28;20030;-67
2024/01/11 09:01:14;;;;;;;26.70;9.98;;;-2.60;99.90;;;;;;4985855;28;20038;-64
2024/01/11 09:03:40;;;;;;;27.95;9.88;;;-2.50;99.90;;;;;;4984609;28;20034;-67
2024/01/11 09:06:06;;;;;;;32.22;10.80;;;-2.30;99.90;;;;;;4982550;28;20061;-65
2024/01/11 09:08:32;;;;;;;36.42;13.65;;;-2.20;99.90;;;;;;4994741;28;20041;-67
2024/01/11 09:10:59;;;;;;;26.27;9.20;;;-2.10;99.90;;;;;;4986401;28;20038;-67
2024/01/11 09:13:28;;;;;;;25.30;8.50;;;-2.00;99.90;;;;;;4989189;28;20597;-68
2024/01/11 09:15:55;;;;;;;29.70;9.57;;;-1.80;99.90;;;;;;4985912;28;20030;-67
2024/01/11 09:18:21;;;;;;;29.15;9.77;;;-1.80;99.90;;;;;;4976719;28;20040;-65
2024/01/11 09:20:48;;;;;;;30.75;11.82;;;-1.90;99.90;;;;;;4987687;28;20038;-68
2024/01/11 09:23:14;;;;;;;42.05;14.38;;;-2.00;99.90;;;;;;4985409;28;20047;-67
2024/01/11 09:25:40;;;;;;;33.45;13.15;;;-2.10;99.90;;;;;;5000090;28;20036;-68
2024/01/11 09:28:06;;;;;;;28.60;10.10;;;-2.20;99.90;;;;;;4990518;28;20034;-67
2024/01/11 09:30:32;;;;;;;37.75;12.80;;;-2.10;99.90;;;;;;4988013;28;20042;-66
2024/01/11 09:32:58;;;;;;;37.00;12.30;;;-1.90;99.90;;;;;;4985324;28;20038;-65
2024/01/11 09:35:23;;;;;;;38.60;12.48;;;-1.90;99.90;;;;;;4986159;28;20099;-65
2024/01/11 09:37:51;;;;;;;38.08;11.90;;;-1.80;99.90;;;;;;4985411;28;20882;-68
2024/01/11 09:40:18;;;;;;;38.08;10.43;;;-1.90;99.90;;;;;;4985351;28;20034;-67
2024/01/11 09:42:44;;;;;;;34.67;10.63;;;-1.90;99.90;;;;;;4987939;28;20030;-66
2024/01/11 09:45:13;;;;;;;30.92;11.30;;;-1.90;99.90;;;;;;4985696;28;20030;-68
2024/01/11 09:47:39;;;;;;;32.05;10.77;;;-1.80;99.90;;;;;;4985025;28;20018;-65
2024/01/11 09:50:10;;;;;;;31.88;9.35;;;-1.80;99.90;;;;;;4989644;28;20642;-64
2024/01/11 09:52:38;;;;;;;29.50;9.55;;;-1.70;99.90;;;;;;4994637;28;20026;-64
2024/01/11 09:55:04;;;;;;;36.70;9.45;;;-1.50;99.90;;;;;;4985401;28;20030;-65
2024/01/11 09:57:32;;;;;;;33.58;11.43;;;-1.50;99.90;;;;;;4985180;28;20066;-66
2024/01/11 09:59:58;;;;;;;28.92;9.57;;;-1.60;99.90;;;;;;4985079;28;20035;-66
2024/01/11 10:02:26;;;;;;;27.95;8.98;;;-1.60;99.90;;;;;;4988710;28;20573;-66
2024/01/11 10:04:55;;;;;;;28.83;9.43;;;-1.50;99.90;;;;;;4991085;28;20052;-66
2024/01/11 10:07:24;;;;;;;25.48;8.38;;;-1.40;99.90;;;;;;4985267;28;20038;-67
2024/01/11 10:09:51;;;;;;;33.17;9.60;;;-1.30;99.90;;;;;;4984747;28;20035;-66
2024/01/11 10:12:24;;;;;;;28.23;9.23;;;-1.20;99.90;;;;;;4985359;28;20068;-67
2024/01/11 10:14:53;;;;;;;30.58;9.63;;;-1.10;99.90;;;;;;4989755;28;20402;-67
2024/01/11 10:17:20;;;;;;;28.50;10.32;;;-0.90;99.90;;;;;;4992771;28;20026;-67
2024/01/11 10:19:46;;;;;;;44.33;13.02;;;-0.80;99.90;;;;;;4988781;28;20038;-66
2024/01/11 10:22:16;;;;;;;34.88;13.80;;;-0.60;99.90;;;;;;4988814;28;20035;-67
2024/01/11 10:24:43;;;;;;;32.53;16.35;;;-0.70;99.90;;;;;;4988283;28;20035;-67
2024/01/11 10:27:09;;;;;;;34.00;13.10;;;-0.70;99.90;;;;;;4988842;28;20026;-67
2024/01/11 10:29:38;;;;;;;55.13;22.98;;;-0.60;99.90;;;;;;4989127;28;20072;-66
2024/01/11 10:32:05;;;;;;;73.38;35.40;;;-0.50;99.90;;;;;;4988256;28;20038;-67
2024/01/11 10:34:30;;;;;;;32.75;14.65;;;-0.60;99.90;;;;;;4988662;28;20034;-67
2024/01/11 10:36:57;;;;;;;33.15;15.30;;;-0.60;99.90;;;;;;4988644;28;20026;-67
2024/01/11 10:39:25;;;;;;;27.65;10.30;;;-0.40;99.90;;;;;;4988280;28;20501;-67
2024/01/11 10:41:58;;;;;;;26.30;8.43;;;-0.30;99.90;;;;;;4988040;28;20856;-67
2024/01/11 10:44:28;;;;;;;25.30;8.95;;;-0.20;99.90;;;;;;4988149;28;20038;-68
2024/01/11 10:46:56;;;;;;;24.40;8.00;;;-0.20;99.90;;;;;;4987934;28;20030;-68
2024/01/11 10:49:25;;;;;;;28.15;9.07;;;-0.10;99.90;;;;;;4992196;28;20117;-67
2024/01/11 10:51:59;;;;;;;26.63;9.18;;;0.00;99.90;;;;;;4987406;28;20034;-66
2024/01/11 10:54:26;;;;;;;24.85;9.70;;;-0.20;99.90;;;;;;4991737;28;20532;-67
2024/01/11 10:56:53;;;;;;;30.63;10.20;;;-0.20;99.90;;;;;;4989712;28;20394;-67
2024/01/11 10:59:24;;;;;;;31.73;8.70;;;-0.30;99.90;;;;;;4988119;28;20026;-67
2024/01/11 11:01:56;;;;;;;23.75;8.30;;;-0.20;99.90;;;;;;4987986;28;20046;-67
2024/01/11 11:04:22;;;;;;;35.60;9.65;;;-0.10;99.90;;;;;;4988136;28;20027;-67
2024/01/11 11:06:57;;;;;;;22.15;8.55;;;-0.10;99.90;;;;;;4992558;28;20920;-67
2024/01/11 11:09:24;;;;;;;27.50;9.68;;;-0.10;99.90;;;;;;4987778;28;20030;-67
2024/01/11 11:11:51;;;;;;;27.95;10.93;;;-0.10;99.90;;;;;;4987532;28;20046;-67
2024/01/11 11:14:18;;;;;;;31.42;10.35;;;-0.20;99.90;;;;;;4987929;28;20041;-67
2024/01/11 11:16:45;;;;;;;25.63;9.10;;;-0.10;99.90;;;;;;4988014;28;20034;-66
2024/01/11 11:19:12;;;;;;;23.38;9.63;;;0.00;99.90;;;;;;4990080;28;20034;-67
2024/01/11 11:21:45;;;;;;;26.92;9.07;;;0.00;99.90;;;;;;4987647;28;20034;-67
2024/01/11 11:24:12;;;;;;;24.00;8.43;;;0.00;99.90;;;;;;4994769;28;20030;-66
2024/01/11 11:26:38;;;;;;;29.30;11.07;;;0.00;99.90;;;;;;4987658;28;20117;-67
2024/01/11 11:29:05;;;;;;;24.40;10.63;;;0.10;99.90;;;;;;4987558;28;20110;-67
2024/01/11 11:31:53;;;;;;;25.95;10.07;;;0.10;99.90;;;;;;4987098;28;20050;-67
2024/01/11 11:34:41;;;;;;;28.52;9.32;;;0.10;99.90;;;;;;4990072;28;20038;-67
2024/01/11 11:37:07;;;;;;;29.20;9.15;;;0.00;99.90;;;;;;4990998;28;20108;-67
2024/01/11 11:39:34;;;;;;;29.45;10.05;;;0.00;99.90;;;;;;4990131;28;20034;-67
2024/01/11 11:42:01;;;;;;;30.42;10.10;;;0.10;99.90;;;;;;4986853;28;20035;-67
2024/01/11 11:44:27;;;;;;;27.40;8.57;;;0.10;99.90;;;;;;4989137;28;20566;-67
2024/01/11 11:46:53;;;;;;;30.17;9.82;;;0.20;99.90;;;;;;4988253;28;20037;-67
2024/01/11 11:49:19;;;;;;;29.40;8.90;;;0.10;99.90;;;;;;4989077;28;20030;-67
2024/01/11 11:51:44;;;;;;;37.13;11.27;;;0.10;99.90;;;;;;4986492;28;20029;-66
2024/01/11 11:54:11;;;;;;;32.33;10.73;;;0.20;99.90;;;;;;4987089;28;20066;-67
2024/01/11 11:56:37;;;;;;;32.75;11.43;;;0.20;99.90;;;;;;4987248;28;20691;-68
2024/01/11 11:59:03;;;;;;;38.00;12.85;;;0.20;99.90;;;;;;4986450;28;20156;-66
2024/01/11 12:01:32;;;;;;;37.47;11.00;;;0.30;99.90;;;;;;4986622;28;20034;-67
2024/01/11 12:03:57;;;;;;;28.15;10.30;;;0.20;99.90;;;;;;4986383;28;20037;-67
2024/01/11 12:06:24;;;;;;;31.98;11.00;;;0.10;99.90;;;;;;4987820;28;20530;-67
2024/01/11 12:08:52;;;;;;;30.15;10.18;;;0.10;99.90;;;;;;4989548;28;20045;-66
2024/01/11 12:11:20;;;;;;;27.92;9.70;;;0.20;99.90;;;;;;4986829;28;20091;-67
2024/01/11 12:13:50;;;;;;;34.83;11.13;;;0.20;99.90;;;;;;4988005;28;20034;-67
2024/01/11 12:16:15;;;;;;;34.85;12.27;;;0.30;99.90;;;;;;4984539;28;20088;-67
2024/01/11 12:18:41;;;;;;;32.97;10.60;;;0.20;99.90;;;;;;5006638;28;20038;-67
2024/01/11 12:21:11;;;;;;;34.80;11.05;;;0.20;99.90;;;;;;4986450;28;20166;-66
2024/01/11 12:23:39;;;;;;;29.35;11.52;;;0.30;99.90;;;;;;4989397;28;20026;-67
2024/01/11 12:26:12;;;;;;;33.42;10.63;;;0.30;99.90;;;;;;4990016;28;20042;-65
2024/01/11 12:28:39;;;;;;;35.83;11.85;;;0.30;99.90;;;;;;4985349;28;20039;-67
2024/01/11 12:31:05;;;;;;;39.92;10.98;;;0.40;99.90;;;;;;4985937;28;20041;-67
2024/01/11 12:33:31;;;;;;;31.70;9.98;;;0.40;99.90;;;;;;4990126;28;20027;-67